Thorco Crystal — V2BP9 — position and weather

sailwx.info

Track history (hours):
 
Tides and Currents Weather Stations Pressure Air Temp Water Temp Dewpoint Dewpoint Depression Visibility Wind Speed Wind Dir Waves Ship Positions

Thorco Crystal

Last reported at 2014-Oct-02 08:33 UTC. Time now 2014-Oct-02 08:38 UTC.
Position N 34°38' W 076°40'.

Length 145 m; draft 6.4 m.

Type: Cargo ship. MMSI: 304736000.

Date/timePositionNaut miles runAvg speedWind from/ knotsBaromVisibWave heightAir tempDewpointWater temp
2014-Oct-02 08:33N 34°38' W 076°40'0 0.1
2014-Oct-02 07:33N 34°38' W 076°40'0 0.0
2014-Oct-02 06:33N 34°38' W 076°40'0 0.0
2014-Oct-02 05:30N 34°38' W 076°40'0 0.0
2014-Oct-02 04:33N 34°38' W 076°40'0 0.0
2014-Oct-02 03:33N 34°38' W 076°40'0 0.1
2014-Oct-02 02:33N 34°38' W 076°40'0 0.0
2014-Oct-02 01:33N 34°38' W 076°40'0 0.0
2014-Oct-02 00:33N 34°38' W 076°40'0 0.0
2014-Oct-01 23:30N 34°38' W 076°40'0 0.0
2014-Oct-01 22:33N 34°38' W 076°40'4 3.7
2014-Oct-01 21:33N 34°34' W 076°40'1110.7
2014-Oct-01 20:33N 34°24' W 076°38'  
2014-Sep-23 08:30N 36°37' W 026°46'1212.3
2014-Sep-23 07:33N 36°38' W 026°31'1212.2
2014-Sep-23 06:33N 36°39' W 026°16'1212.1
2014-Sep-23 05:33N 36°39' W 026°01'1212.2
2014-Sep-23 04:33N 36°39' W 025°46'1212.3
2014-Sep-23 03:33N 36°40' W 025°31'1212.4
2014-Sep-23 02:33N 36°41' W 025°15'1212.3
2014-Sep-23 01:33N 36°41' W 024°60'1212.3
2014-Sep-23 00:34N 36°43' W 024°45'1212.4
2014-Sep-22 23:33N 36°45' W 024°30'1212.2
2014-Sep-22 22:33N 36°47' W 024°15'1212.4
2014-Sep-22 21:34N 36°49' W 023°59'1312.5
2014-Sep-22 20:33N 36°51' W 023°44'  
Track history (hours):
 
Tides and Currents Weather Stations Pressure Air Temp Water Temp Dewpoint Dewpoint Depression Visibility Wind Speed Wind Dir Waves Ship Positions

Thorco Crystal

Last reported at 2014-Oct-02 08:33 UTC. Time now 2014-Oct-02 08:38 UTC.
Position N 34°38' W 076°40'.

Length 145 m; draft 6.4 m.

Type: Cargo ship. MMSI: 304736000.

Date/timePositionNaut miles runAvg speedWind from/ knotsBaromVisibWave heightAir tempDewpointWater temp
2014-Oct-02 08:33N 34°38' W 076°40'0 0.1
2014-Oct-02 07:33N 34°38' W 076°40'0 0.0
2014-Oct-02 06:33N 34°38' W 076°40'0 0.0
2014-Oct-02 05:30N 34°38' W 076°40'0 0.0
2014-Oct-02 04:33N 34°38' W 076°40'0 0.0
2014-Oct-02 03:33N 34°38' W 076°40'0 0.1
2014-Oct-02 02:33N 34°38' W 076°40'0 0.0
2014-Oct-02 01:33N 34°38' W 076°40'0 0.0
2014-Oct-02 00:33N 34°38' W 076°40'0 0.0
2014-Oct-01 23:30N 34°38' W 076°40'0 0.0
2014-Oct-01 22:33N 34°38' W 076°40'4 3.7
2014-Oct-01 21:33N 34°34' W 076°40'1110.7
2014-Oct-01 20:33N 34°24' W 076°38'  
2014-Sep-23 08:30N 36°37' W 026°46'1212.3
2014-Sep-23 07:33N 36°38' W 026°31'1212.2
2014-Sep-23 06:33N 36°39' W 026°16'1212.1
2014-Sep-23 05:33N 36°39' W 026°01'1212.2
2014-Sep-23 04:33N 36°39' W 025°46'1212.3
2014-Sep-23 03:33N 36°40' W 025°31'1212.4
2014-Sep-23 02:33N 36°41' W 025°15'1212.3
2014-Sep-23 01:33N 36°41' W 024°60'1212.3
2014-Sep-23 00:34N 36°43' W 024°45'1212.4
2014-Sep-22 23:33N 36°45' W 024°30'1212.2
2014-Sep-22 22:33N 36°47' W 024°15'1212.4
2014-Sep-22 21:34N 36°49' W 023°59'1312.5
2014-Sep-22 20:33N 36°51' W 023°44'  

Dump ship's entire track history